createdAt,value
2023-06-22T00:02:56.576Z,24.22
2023-06-22T00:05:59.060Z,24.18
2023-06-22T00:09:01.461Z,24.12
2023-06-22T00:12:04.146Z,24.08
2023-06-22T00:15:06.962Z,24.11
2023-06-22T00:18:09.661Z,24.06
2023-06-22T00:21:13.715Z,24.17
2023-06-22T00:24:16.104Z,24.07
2023-06-22T00:27:18.505Z,23.96
2023-06-22T00:30:20.878Z,23.94
2023-06-22T00:33:23.261Z,23.97
2023-06-22T00:36:25.966Z,23.87
2023-06-22T00:39:28.332Z,23.88
2023-06-22T00:42:30.812Z,23.97
2023-06-22T00:45:33.251Z,23.92
2023-06-22T00:48:37.825Z,23.91
2023-06-22T00:51:40.821Z,23.85
2023-06-22T00:54:46.623Z,23.77
2023-06-22T00:57:49.190Z,23.78
2023-06-22T01:00:52.702Z,23.72
2023-06-22T01:03:58.776Z,23.71
2023-06-22T01:07:12.048Z,23.73
2023-06-22T01:10:26.555Z,23.70
2023-06-22T01:13:41.029Z,23.69
2023-06-22T01:16:45.161Z,23.67
2023-06-22T01:19:59.849Z,23.65
2023-06-22T01:23:20.880Z,23.62
2023-06-22T01:26:44.937Z,23.72
2023-06-22T01:29:47.309Z,23.58
2023-06-22T01:32:49.858Z,23.62
2023-06-22T01:35:52.284Z,23.59
2023-06-22T01:38:54.822Z,23.56
2023-06-22T01:41:57.176Z,23.52
2023-06-22T01:44:59.577Z,23.53
2023-06-22T01:48:02.028Z,23.52
2023-06-22T01:51:04.523Z,23.59
2023-06-22T01:54:07.540Z,23.60
2023-06-22T01:57:11.684Z,23.50
2023-06-22T02:00:17.051Z,23.50
2023-06-22T02:03:24.697Z,23.60
2023-06-22T02:06:38.866Z,23.41
2023-06-22T02:09:41.954Z,23.53
2023-06-22T02:12:44.524Z,23.51
2023-06-22T02:15:46.931Z,23.58
2023-06-22T02:18:52.170Z,23.69
2023-06-22T02:21:54.534Z,23.55
2023-06-22T02:24:57.497Z,23.43
2023-06-22T02:28:01.380Z,23.41
2023-06-22T02:34:05.905Z,23.49
2023-06-22T02:37:08.318Z,23.59
2023-06-22T02:40:11.462Z,23.47
2023-06-22T02:43:14.179Z,23.41
2023-06-22T02:46:16.617Z,23.39
2023-06-22T02:49:19.863Z,23.40
2023-06-22T02:52:22.642Z,23.34
2023-06-22T02:55:25.021Z,23.32
2023-06-22T02:58:39.381Z,23.34
2023-06-22T03:01:45.093Z,23.22
2023-06-22T03:04:58.745Z,23.06
2023-06-22T03:08:01.207Z,23.13
2023-06-22T03:11:07.027Z,23.28
2023-06-22T03:14:09.370Z,23.21
2023-06-22T03:17:12.507Z,23.28
2023-06-22T03:20:14.970Z,22.99
2023-06-22T03:23:17.479Z,23.13
2023-06-22T03:26:20.135Z,23.12
2023-06-22T03:29:22.574Z,23.15
2023-06-22T03:32:26.590Z,23.12
2023-06-22T03:35:29.129Z,23.11
2023-06-22T03:38:31.965Z,23.09
2023-06-22T03:41:34.327Z,23.20
2023-06-22T03:44:37.623Z,23.30
2023-06-22T03:47:42.249Z,23.27
2023-06-22T03:50:45.209Z,23.33
2023-06-22T03:53:47.683Z,23.35
2023-06-22T03:56:50.036Z,23.32
2023-06-22T03:59:52.364Z,23.35
2023-06-22T04:02:54.777Z,23.36
2023-06-22T04:05:57.200Z,23.42
2023-06-22T04:08:59.531Z,23.46
2023-06-22T04:12:02.896Z,23.51
2023-06-22T04:15:05.761Z,23.58
2023-06-22T04:18:08.170Z,23.62
2023-06-22T04:21:11.590Z,23.72
2023-06-22T04:24:13.977Z,23.81
2023-06-22T04:27:16.364Z,23.91
2023-06-22T04:30:19.073Z,23.86
2023-06-22T04:33:21.512Z,23.83
2023-06-22T04:36:26.093Z,23.85
2023-06-22T04:39:28.816Z,23.85
2023-06-22T04:42:31.596Z,23.84
2023-06-22T04:45:34.281Z,23.97
2023-06-22T04:48:36.624Z,23.85
2023-06-22T04:51:42.458Z,23.86
2023-06-22T04:54:51.899Z,23.84
2023-06-22T04:57:54.516Z,24.01
2023-06-22T05:00:58.279Z,23.96
2023-06-22T05:04:02.522Z,23.98
2023-06-22T05:07:05.332Z,23.97
2023-06-22T05:10:08.123Z,23.90
2023-06-22T05:13:10.522Z,23.91
2023-06-22T05:16:12.913Z,23.98
2023-06-22T05:19:15.296Z,24.01
2023-06-22T05:22:17.729Z,24.02
2023-06-22T05:25:20.439Z,24.08
2023-06-22T05:28:24.277Z,24.13
2023-06-22T05:31:26.958Z,24.19
2023-06-22T05:34:29.484Z,24.19
2023-06-22T05:37:31.866Z,24.28
2023-06-22T05:40:34.253Z,24.27
2023-06-22T05:43:36.636Z,24.35
2023-06-22T05:46:45.414Z,24.35
2023-06-22T05:49:47.972Z,24.40
2023-06-22T05:52:50.343Z,24.53
2023-06-22T05:55:53.070Z,24.57
2023-06-22T05:58:55.446Z,24.73
2023-06-22T06:01:57.823Z,24.83
2023-06-22T06:05:00.187Z,24.90
2023-06-22T06:08:03.005Z,24.96
2023-06-22T06:11:05.359Z,24.96
2023-06-22T06:14:07.743Z,25.11
2023-06-22T06:17:10.106Z,25.17
2023-06-22T06:20:13.290Z,25.19
2023-06-22T06:23:15.636Z,25.16
2023-06-22T06:26:18.230Z,25.30
2023-06-22T06:29:20.623Z,25.25
2023-06-22T06:32:23.124Z,25.28
2023-06-22T06:35:25.554Z,25.26
2023-06-22T06:38:27.945Z,25.31
2023-06-22T06:41:30.353Z,25.43
2023-06-22T06:44:32.754Z,25.53
2023-06-22T06:47:35.435Z,25.65
2023-06-22T06:50:37.844Z,25.70
2023-06-22T06:53:40.293Z,25.81
2023-06-22T06:56:46.078Z,25.83
2023-06-22T06:59:48.469Z,26.16
2023-06-22T07:02:50.982Z,26.18
2023-06-22T07:05:53.372Z,26.28
2023-06-22T07:08:56.630Z,26.32
2023-06-22T07:11:58.965Z,26.37
2023-06-22T07:15:12.844Z,26.45
2023-06-22T07:18:15.289Z,26.57
2023-06-22T07:21:17.695Z,26.74
2023-06-22T07:24:21.037Z,26.90
2023-06-22T07:27:23.408Z,26.98
2023-06-22T07:30:25.982Z,26.97
2023-06-22T07:33:28.967Z,27.05
2023-06-22T07:36:31.382Z,27.24
2023-06-22T07:39:33.879Z,27.24
2023-06-22T07:42:36.253Z,27.40
2023-06-22T07:45:41.460Z,27.48
2023-06-22T07:48:45.051Z,27.47
2023-06-22T07:51:47.406Z,27.42
2023-06-22T07:54:49.744Z,27.56
2023-06-22T07:57:53.318Z,27.65
2023-06-22T08:00:55.750Z,27.71
2023-06-22T08:03:58.118Z,27.93
2023-06-22T08:07:00.573Z,28.04
2023-06-22T08:10:03.724Z,28.13
2023-06-22T08:13:06.271Z,28.31
2023-06-22T08:16:08.834Z,28.47
2023-06-22T08:19:11.224Z,28.54
2023-06-22T08:22:13.544Z,28.66
2023-06-22T08:25:15.997Z,28.74
2023-06-22T08:28:18.445Z,28.76
2023-06-22T08:31:20.981Z,28.94
2023-06-22T08:34:24.031Z,29.16
2023-06-22T08:37:31.508Z,29.33
2023-06-22T08:40:33.927Z,29.40
2023-06-22T08:43:36.319Z,29.55
2023-06-22T08:46:40.124Z,29.69
2023-06-22T08:49:42.516Z,29.69
2023-06-22T08:52:45.005Z,30.00
2023-06-22T08:55:47.420Z,30.15
2023-06-22T08:58:49.796Z,30.27
2023-06-22T09:01:52.225Z,30.20
2023-06-22T09:04:57.040Z,30.29
2023-06-22T09:07:59.898Z,30.33
2023-06-22T09:11:02.278Z,30.48
2023-06-22T09:14:05.428Z,30.64
2023-06-22T09:17:07.821Z,30.81
2023-06-22T09:20:12.229Z,31.14
2023-06-22T09:23:14.695Z,31.28
2023-06-22T09:26:17.293Z,31.36
2023-06-22T09:29:19.755Z,31.48
2023-06-22T09:32:22.102Z,31.42
2023-06-22T09:35:24.438Z,31.60
2023-06-22T09:38:26.967Z,31.69
2023-06-22T09:41:29.352Z,31.91
2023-06-22T09:44:31.706Z,32.19
2023-06-22T09:47:34.167Z,32.34
2023-06-22T09:50:37.720Z,32.39
2023-06-22T09:53:40.119Z,32.52
2023-06-22T09:56:42.474Z,32.67
2023-06-22T09:59:44.874Z,32.79
2023-06-22T10:02:47.742Z,33.01
2023-06-22T10:05:50.686Z,33.23
2023-06-22T10:08:53.135Z,33.53
2023-06-22T10:11:55.555Z,33.45
2023-06-22T10:14:57.923Z,33.52
2023-06-22T10:18:00.818Z,33.60
2023-06-22T10:21:03.293Z,33.69
2023-06-22T10:24:08.621Z,33.63
2023-06-22T10:27:14.627Z,33.49
2023-06-22T10:30:17.324Z,33.79
2023-06-22T10:33:20.129Z,33.74
2023-06-22T10:36:23.155Z,33.69
2023-06-22T10:39:25.487Z,33.87
2023-06-22T10:42:27.896Z,34.38
2023-06-22T10:45:30.693Z,34.54
2023-06-22T10:48:33.291Z,34.52
2023-06-22T10:51:35.766Z,34.54
2023-06-22T10:54:38.803Z,34.72
2023-06-22T10:57:44.811Z,34.85
2023-06-22T11:00:47.354Z,34.85
2023-06-22T11:03:49.739Z,34.97
2023-06-22T11:06:52.182Z,35.16
2023-06-22T11:09:54.535Z,35.17
2023-06-22T11:12:58.990Z,35.41
2023-06-22T11:16:01.446Z,35.57
2023-06-22T11:19:05.500Z,35.75
2023-06-22T11:22:07.881Z,35.78
2023-06-22T11:25:10.422Z,35.90
2023-06-22T11:28:12.897Z,35.97
2023-06-22T11:34:20.907Z,36.14
2023-06-22T11:37:23.243Z,35.91
2023-06-22T11:40:25.617Z,35.81
2023-06-22T11:43:28.141Z,36.22
2023-06-22T11:46:30.592Z,36.22
2023-06-22T11:49:32.957Z,36.15
2023-06-22T11:52:37.082Z,35.99
2023-06-22T11:55:39.504Z,36.19
2023-06-22T11:58:41.872Z,36.27
2023-06-22T12:01:44.205Z,36.39
2023-06-22T12:04:47.613Z,36.44
2023-06-22T12:07:50.088Z,36.44
2023-06-22T12:10:52.986Z,36.89
2023-06-22T12:13:55.546Z,36.95
2023-06-22T12:16:58.151Z,36.92
2023-06-22T12:20:00.589Z,36.99
2023-06-22T12:23:02.968Z,37.45
2023-06-22T12:26:05.356Z,37.47
2023-06-22T12:29:07.720Z,37.68
2023-06-22T12:32:10.096Z,37.27
2023-06-22T12:35:15.159Z,37.43
2023-06-22T12:38:17.733Z,37.52
2023-06-22T12:41:20.149Z,37.30
2023-06-22T12:44:22.591Z,37.27
2023-06-22T12:47:25.029Z,37.29
2023-06-22T12:50:27.648Z,37.56
2023-06-22T12:53:30.173Z,37.71
2023-06-22T12:56:32.643Z,37.88
2023-06-22T12:59:35.013Z,37.79
2023-06-22T13:02:38.376Z,37.57
2023-06-22T13:05:40.875Z,37.74
2023-06-22T13:11:48.734Z,37.84
2023-06-22T13:14:51.095Z,37.79
2023-06-22T13:17:53.599Z,37.78
2023-06-22T13:20:56.035Z,37.61
2023-06-22T13:23:58.970Z,37.43
2023-06-22T13:27:01.357Z,37.45
2023-06-22T13:30:04.025Z,37.37
2023-06-22T13:33:06.467Z,37.32
2023-06-22T13:36:09.057Z,37.45
2023-06-22T13:39:11.438Z,37.39
2023-06-22T13:42:13.788Z,37.55
2023-06-22T13:45:18.418Z,37.46
2023-06-22T13:48:20.797Z,37.41
2023-06-22T13:51:23.187Z,37.57
2023-06-22T13:54:30.094Z,37.44
2023-06-22T13:57:32.987Z,37.33
2023-06-22T14:00:35.378Z,37.50
2023-06-22T14:03:37.931Z,37.48
2023-06-22T14:06:40.292Z,37.31
2023-06-22T14:09:42.663Z,37.39
2023-06-22T14:12:45.915Z,37.32
2023-06-22T14:15:49.425Z,37.34
2023-06-22T14:18:52.369Z,37.19
2023-06-22T14:21:55.837Z,37.03
2023-06-22T14:24:59.917Z,36.90
2023-06-22T14:28:02.378Z,36.80
2023-06-22T14:31:04.980Z,36.56
2023-06-22T14:34:07.558Z,36.41
2023-06-22T14:37:14.142Z,36.48
2023-06-22T14:40:16.667Z,36.60
2023-06-22T14:43:19.063Z,36.52
2023-06-22T14:46:21.793Z,36.49
2023-06-22T14:49:24.419Z,36.60
2023-06-22T14:52:26.985Z,36.62
2023-06-22T14:55:29.428Z,36.01
2023-06-22T14:58:34.429Z,36.20
2023-06-22T15:01:37.058Z,36.28
2023-06-22T15:04:39.569Z,36.37
2023-06-22T15:07:42.038Z,36.42
2023-06-22T15:10:44.465Z,36.53
2023-06-22T15:13:46.886Z,36.20
2023-06-22T15:16:49.350Z,35.93
2023-06-22T15:19:51.709Z,35.78
2023-06-22T15:22:54.132Z,35.60
2023-06-22T15:25:57.219Z,35.79
2023-06-22T15:28:59.572Z,35.50
2023-06-22T15:32:02.205Z,35.71
2023-06-22T15:35:05.047Z,35.50
2023-06-22T15:38:07.419Z,35.36
2023-06-22T15:41:09.822Z,35.20
2023-06-22T15:44:12.242Z,35.15
2023-06-22T15:47:14.604Z,35.07
2023-06-22T15:50:17.045Z,35.09
2023-06-22T15:53:19.452Z,34.97
2023-06-22T15:56:22.246Z,34.85
2023-06-22T15:59:24.948Z,34.92
2023-06-22T16:02:28.350Z,34.82
2023-06-22T16:05:30.818Z,34.77
2023-06-22T16:08:34.778Z,34.78
2023-06-22T16:11:37.234Z,34.75
2023-06-22T16:14:41.753Z,34.66
2023-06-22T16:17:44.120Z,34.60
2023-06-22T16:20:47.435Z,34.52
2023-06-22T16:23:49.809Z,34.31
2023-06-22T16:26:52.211Z,34.15
2023-06-22T16:29:54.622Z,34.21
2023-06-22T16:33:00.562Z,34.16
2023-06-22T16:36:03.185Z,34.11
2023-06-22T16:39:05.839Z,34.14
2023-06-22T16:42:08.343Z,34.09
2023-06-22T16:45:10.788Z,33.83
2023-06-22T16:48:13.380Z,33.71
2023-06-22T16:51:15.799Z,33.57
2023-06-22T16:54:18.167Z,33.49
2023-06-22T16:57:20.686Z,33.41
2023-06-22T17:00:23.332Z,33.39
2023-06-22T17:03:34.344Z,33.28
2023-06-22T17:06:39.062Z,33.29
2023-06-22T17:09:41.681Z,33.15
2023-06-22T17:12:44.025Z,33.04
2023-06-22T17:15:46.814Z,32.97
2023-06-22T17:18:50.786Z,32.88
2023-06-22T17:21:53.302Z,32.82
2023-06-22T17:24:55.784Z,32.83
2023-06-22T17:28:04.552Z,32.81
2023-06-22T17:31:11.306Z,32.70
2023-06-22T17:34:16.213Z,32.61
2023-06-22T17:37:18.624Z,32.57
2023-06-22T17:40:22.431Z,32.52
2023-06-22T17:43:24.825Z,32.47
2023-06-22T17:46:27.325Z,32.48
2023-06-22T17:49:30.704Z,32.45
2023-06-22T17:52:33.143Z,32.31
2023-06-22T17:55:35.472Z,32.16
2023-06-22T17:58:37.860Z,32.08
2023-06-22T18:01:40.356Z,31.99
2023-06-22T18:04:43.788Z,31.93
2023-06-22T18:07:46.184Z,31.85
2023-06-22T18:10:48.604Z,31.76
2023-06-22T18:13:50.977Z,31.69
2023-06-22T18:16:53.636Z,31.68
2023-06-22T18:20:00.969Z,31.58
2023-06-22T18:23:03.362Z,31.48
2023-06-22T18:26:05.795Z,31.42
2023-06-22T18:29:08.265Z,31.38
2023-06-22T18:32:10.669Z,31.32
2023-06-22T18:35:13.068Z,31.28
2023-06-22T18:38:15.426Z,31.15
2023-06-22T18:41:37.519Z,31.04
2023-06-22T18:44:43.204Z,30.97
2023-06-22T18:47:46.379Z,30.90
2023-06-22T18:50:50.291Z,30.84
2023-06-22T18:54:03.619Z,30.72
2023-06-22T18:57:25.644Z,30.64
2023-06-22T19:00:33.841Z,30.46
2023-06-22T19:03:36.417Z,30.33
2023-06-22T19:06:54.159Z,30.19
2023-06-22T19:10:22.510Z,30.08
2023-06-22T19:13:25.019Z,29.96
2023-06-22T19:16:30.561Z,29.84
2023-06-22T19:19:36.027Z,29.75
2023-06-22T19:22:48.044Z,29.64
2023-06-22T19:25:50.503Z,29.59
2023-06-22T19:28:57.614Z,29.52
2023-06-22T19:32:00.129Z,29.43
2023-06-22T19:35:03.049Z,29.32
2023-06-22T19:38:05.693Z,29.31
2023-06-22T19:41:08.899Z,29.13
2023-06-22T19:44:11.393Z,29.10
2023-06-22T19:47:14.203Z,29.02
2023-06-22T19:50:18.032Z,28.94
2023-06-22T19:53:20.434Z,28.94
2023-06-22T19:56:23.004Z,28.89
2023-06-22T19:59:26.551Z,28.82
2023-06-22T20:02:30.369Z,28.69
2023-06-22T20:05:34.924Z,28.69
2023-06-22T20:08:50.779Z,28.69
2023-06-22T20:11:57.315Z,28.63
2023-06-22T20:15:15.085Z,28.66
2023-06-22T20:18:17.473Z,28.56
2023-06-22T20:21:19.872Z,28.42
2023-06-22T20:24:23.197Z,28.32
2023-06-22T20:27:26.532Z,28.25
2023-06-22T20:30:29.057Z,28.07
2023-06-22T20:33:32.087Z,28.04
2023-06-22T20:36:34.517Z,27.95
2023-06-22T20:39:37.453Z,27.88
2023-06-22T20:42:39.944Z,27.88
2023-06-22T20:45:42.334Z,27.84
2023-06-22T20:48:45.563Z,27.79
2023-06-22T20:51:47.962Z,27.73
2023-06-22T20:54:50.471Z,27.68
2023-06-22T20:57:53.293Z,27.51
2023-06-22T21:01:01.659Z,27.52
2023-06-22T21:04:04.443Z,27.54
2023-06-22T21:07:07.026Z,27.42
2023-06-22T21:10:09.844Z,27.28
2023-06-22T21:13:12.227Z,27.15
2023-06-22T21:16:14.791Z,27.04
2023-06-22T21:19:17.225Z,27.00
2023-06-22T21:22:20.196Z,26.98
2023-06-22T21:25:22.579Z,26.98
2023-06-22T21:28:26.089Z,26.98
2023-06-22T21:31:28.545Z,26.97
2023-06-22T21:34:30.979Z,26.94
2023-06-22T21:37:33.342Z,26.89
2023-06-22T21:40:35.731Z,26.85
2023-06-22T21:43:38.096Z,26.88
2023-06-22T21:46:40.533Z,26.90
2023-06-22T21:49:42.923Z,26.79
2023-06-22T21:52:45.473Z,26.75
2023-06-22T21:55:47.996Z,26.66
2023-06-22T21:58:50.388Z,26.60
2023-06-22T22:01:52.894Z,26.64
2023-06-22T22:04:55.276Z,26.67
2023-06-22T22:07:57.684Z,26.57
2023-06-22T22:11:00.072Z,26.57
2023-06-22T22:14:02.538Z,26.56
2023-06-22T22:17:05.165Z,26.58
2023-06-22T22:20:10.188Z,26.59
2023-06-22T22:23:12.564Z,26.40
2023-06-22T22:26:14.993Z,26.42
2023-06-22T22:29:17.409Z,26.39
2023-06-22T22:32:19.859Z,26.40
2023-06-22T22:35:22.381Z,26.33
2023-06-22T22:38:24.796Z,26.41
2023-06-22T22:41:27.360Z,26.35
2023-06-22T22:44:29.809Z,26.31
2023-06-22T22:47:32.283Z,26.36
2023-06-22T22:50:34.852Z,26.29
2023-06-22T22:53:37.400Z,26.25
2023-06-22T22:56:39.756Z,26.11
2023-06-22T22:59:42.246Z,26.18
2023-06-22T23:02:44.815Z,26.17
2023-06-22T23:05:47.636Z,26.08
2023-06-22T23:08:57.026Z,26.02
2023-06-22T23:11:59.516Z,25.96
2023-06-22T23:15:02.229Z,25.96
2023-06-22T23:18:04.639Z,25.97
2023-06-22T23:21:08.125Z,25.90
2023-06-22T23:24:10.531Z,25.90
2023-06-22T23:27:15.944Z,25.89
2023-06-22T23:30:18.411Z,25.79
2023-06-22T23:33:22.508Z,25.70
2023-06-22T23:36:26.476Z,25.72
2023-06-22T23:39:28.909Z,25.71
2023-06-22T23:42:31.284Z,25.68
2023-06-22T23:45:33.940Z,25.67
2023-06-22T23:48:36.598Z,25.57
2023-06-22T23:51:39.000Z,25.45
2023-06-22T23:54:41.341Z,25.52
2023-06-22T23:57:44.136Z,25.36
